Strona główna
METAR-TAF:

METAR-TAF

Lotnisko :

Port lotniczy Sanya-Phoenix

Sanya, Chiny

Szerokość geograficzna: 18-18N, Długość geograficzna: 109-24E, wysokość: 27 m

Aktualna obserwacja pogody

Raport powstał 25 minut temu, godzina 01:00 UTC
Wiatr 4 kt od południowo-południowy wschód, zmienny między wschodnio-południowy wschód i południowy zachód
Temperatura 31°C
Wilgotność 79%
Ciśnienie 1007 hPa
Widzialność 10 km lub więcej
Mało chmury na wysokości 1700 ft

METAR: ZJSY 260100Z 16002MPS 120V230 9999 FEW017 31/27 Q1007 NOSIG

czas: 09:25 (01:25 UTC)

Prognoza

Raport powstał 6 godziny i 14 minut temu, godzina 19:11 UTC
Prognoza ważna od 26 godzina 00 UTC do 26 godzina 24 UTC
Wiatr 8 kt od wschód
Widzialność 10 km lub więcej
Rozproszone chmury na wysokości 2000 ft
Przejściowo
od 26 godzina 00 UTC do 26 godzina 06 UTC
Rozproszone chmury na wysokości 1600 ft
Mało chmury na wysokości 2500 ft, Cumulonimbus.

TAF: ZJSY 251911Z 2600/2624 10004MPS 9999 SCT020 TX33/2606Z TN27/2621Z TEMPO 2600/2606 SCT016 FEW025CB

Obserwacja i prognoza pogody dla ponad 4000 lotnisk (raport METAR i TAF).

Dostępne stacje oznaczono żółtymi i czerwonymi punktami na mapie.

Najedź kursorem aby zobaczyć nazwę stacji.

Kliknij aby zobaczyć obserwacje i prognozy pogody.

Aby zmienić mapę: kliknij na zielony przycisk z czarnym krzyżykiem, aby powiększyć; na zielony przycisk z myślnikiem, aby pomniejszyć; na zielone strzałki, aby przejść do map sąsiednich.


METAR-TAF: